createdAt,value
2019-05-11T00:01:24.602Z,21.20
2019-05-11T00:03:53.345Z,21.20
2019-05-11T00:06:22.027Z,21.20
2019-05-11T00:08:50.680Z,21.20
2019-05-11T00:11:19.347Z,21.20
2019-05-11T00:13:47.986Z,21.10
2019-05-11T00:16:19.059Z,21.20
2019-05-11T00:18:47.039Z,21.10
2019-05-11T00:21:15.705Z,21.10
2019-05-11T00:23:44.341Z,21.10
2019-05-11T00:26:13.006Z,21.10
2019-05-11T00:28:41.650Z,21.10
2019-05-11T00:31:10.315Z,21.10
2019-05-11T00:33:38.942Z,21.10
2019-05-11T00:36:07.600Z,21.10
2019-05-11T00:38:36.278Z,21.10
2019-05-11T00:41:04.974Z,21.10
2019-05-11T00:43:33.659Z,21.10
2019-05-11T00:46:02.294Z,21.10
2019-05-11T00:48:30.951Z,21.10
2019-05-11T00:50:59.719Z,21.00
2019-05-11T00:53:28.449Z,21.10
2019-05-11T00:55:57.102Z,21.00
2019-05-11T00:58:25.835Z,21.00
2019-05-11T01:00:54.720Z,21.00
2019-05-11T01:03:23.612Z,21.00
2019-05-11T01:05:53.046Z,21.00
2019-05-11T01:08:21.726Z,21.00
2019-05-11T01:10:50.407Z,21.00
2019-05-11T01:13:19.063Z,21.00
2019-05-11T01:15:47.718Z,21.00
2019-05-11T01:18:16.368Z,21.00
2019-05-11T01:20:45.003Z,21.00
2019-05-11T01:23:13.636Z,21.00
2019-05-11T01:25:42.285Z,21.00
2019-05-11T01:28:10.928Z,21.00
2019-05-11T01:30:39.571Z,21.00
2019-05-11T01:33:08.275Z,21.00
2019-05-11T01:35:36.979Z,21.00
2019-05-11T01:38:05.640Z,21.00
2019-05-11T01:40:34.968Z,21.00
2019-05-11T01:43:03.595Z,21.00
2019-05-11T01:45:32.268Z,20.90
2019-05-11T01:48:00.925Z,20.90
2019-05-11T01:50:29.576Z,20.90
2019-05-11T01:52:58.917Z,20.90
2019-05-11T01:55:27.567Z,20.90
2019-05-11T01:57:56.214Z,20.90
2019-05-11T02:00:24.903Z,20.90
2019-05-11T02:02:54.429Z,20.90
2019-05-11T02:05:29.634Z,20.90
2019-05-11T02:07:58.924Z,20.90
2019-05-11T02:10:27.631Z,20.90
2019-05-11T02:12:56.327Z,20.90
2019-05-11T02:15:24.971Z,20.90
2019-05-11T02:17:53.634Z,20.90
2019-05-11T02:20:22.284Z,20.90
2019-05-11T02:22:50.964Z,20.90
2019-05-11T02:25:19.612Z,20.90
2019-05-11T02:27:48.259Z,20.90
2019-05-11T02:30:16.902Z,20.80
2019-05-11T02:32:45.592Z,20.80
2019-05-11T02:35:15.393Z,20.80
2019-05-11T02:37:44.036Z,20.80
2019-05-11T02:40:12.731Z,20.80
2019-05-11T02:42:41.721Z,20.80
2019-05-11T02:45:10.367Z,20.80
2019-05-11T02:47:39.038Z,20.80
2019-05-11T02:50:07.684Z,20.80
2019-05-11T02:52:36.358Z,20.80
2019-05-11T02:55:05.856Z,20.80
2019-05-11T02:57:34.528Z,20.80
2019-05-11T03:00:03.286Z,20.80
2019-05-11T03:02:32.010Z,20.80
2019-05-11T03:05:00.675Z,20.80
2019-05-11T03:07:29.355Z,20.80
2019-05-11T03:09:58.015Z,20.80
2019-05-11T03:12:27.300Z,20.70
2019-05-11T03:14:56.171Z,20.70
2019-05-11T03:17:29.472Z,20.70
2019-05-11T03:19:58.116Z,20.70
2019-05-11T03:22:26.764Z,20.70
2019-05-11T03:24:55.524Z,20.70
2019-05-11T03:27:24.172Z,20.70
2019-05-11T03:29:52.830Z,20.70
2019-05-11T03:32:21.480Z,20.70
2019-05-11T03:34:50.239Z,20.70
2019-05-11T03:37:19.574Z,20.70
2019-05-11T03:39:49.005Z,20.70
2019-05-11T03:42:17.678Z,20.70
2019-05-11T03:44:46.315Z,20.70
2019-05-11T03:47:15.047Z,20.70
2019-05-11T03:49:43.706Z,20.70
2019-05-11T03:52:12.352Z,20.70
2019-05-11T03:54:41.019Z,20.70
2019-05-11T03:57:09.680Z,20.70
2019-05-11T03:59:38.305Z,20.70
2019-05-11T04:02:06.950Z,20.70
2019-05-11T04:04:35.599Z,20.70
2019-05-11T04:07:04.254Z,20.70
2019-05-11T04:09:32.904Z,20.70
2019-05-11T04:12:01.547Z,20.70
2019-05-11T04:14:30.232Z,20.70
2019-05-11T04:16:58.916Z,20.60
2019-05-11T04:19:27.553Z,20.70
2019-05-11T04:21:56.225Z,20.60
2019-05-11T04:24:24.890Z,20.60
2019-05-11T04:26:53.535Z,20.60
2019-05-11T04:29:22.221Z,20.70
2019-05-11T04:31:50.926Z,20.70
2019-05-11T04:34:19.587Z,20.70
2019-05-11T04:36:48.273Z,20.70
2019-05-11T04:39:16.937Z,20.70
2019-05-11T04:41:45.635Z,20.70
2019-05-11T04:44:14.292Z,20.70
2019-05-11T04:46:42.927Z,20.70
2019-05-11T04:49:11.579Z,20.70
2019-05-11T04:51:40.227Z,20.70
2019-05-11T04:54:08.874Z,20.70
2019-05-11T04:56:37.522Z,20.70
2019-05-11T04:59:06.159Z,20.70
2019-05-11T05:01:35.499Z,20.70
2019-05-11T05:04:13.956Z,20.70
2019-05-11T05:06:34.523Z,20.70
2019-05-11T05:09:05.128Z,20.70
2019-05-11T05:11:36.809Z,20.70
2019-05-11T05:14:08.221Z,20.70
2019-05-11T05:16:34.646Z,20.70
2019-05-11T05:19:03.315Z,20.70
2019-05-11T05:21:31.952Z,20.70
2019-05-11T05:24:00.586Z,20.80
2019-05-11T05:26:29.443Z,20.80
2019-05-11T05:28:58.235Z,20.80
2019-05-11T05:31:27.044Z,20.80
2019-05-11T05:33:55.684Z,20.80
2019-05-11T05:36:24.319Z,20.80
2019-05-11T05:38:52.980Z,20.80
2019-05-11T05:41:21.663Z,20.90
2019-05-11T05:43:50.342Z,20.90
2019-05-11T05:46:19.000Z,20.90
2019-05-11T05:48:47.820Z,20.90
2019-05-11T05:51:16.471Z,20.90
2019-05-11T05:53:45.296Z,20.90
2019-05-11T05:56:14.021Z,20.90
2019-05-11T05:58:42.711Z,21.00
2019-05-11T06:01:11.354Z,21.00
2019-05-11T06:03:40.012Z,21.00
2019-05-11T06:06:08.723Z,21.00
2019-05-11T06:08:37.383Z,21.00
2019-05-11T06:11:06.025Z,21.00
2019-05-11T06:13:44.845Z,21.00
2019-05-11T06:16:05.062Z,21.00
2019-05-11T06:18:33.736Z,21.00
2019-05-11T06:21:02.391Z,21.00
2019-05-11T06:23:31.050Z,21.00
2019-05-11T06:25:59.692Z,21.10
2019-05-11T06:28:28.334Z,21.00
2019-05-11T06:30:57.419Z,21.00
2019-05-11T06:33:26.066Z,21.10
2019-05-11T06:35:54.697Z,21.10
2019-05-11T06:38:23.371Z,21.10
2019-05-11T06:40:52.034Z,21.10
2019-05-11T06:43:20.665Z,21.10
2019-05-11T06:45:49.406Z,21.10
2019-05-11T06:48:30.187Z,21.20
2019-05-11T06:50:59.162Z,21.20
2019-05-11T06:53:27.810Z,21.20
2019-05-11T06:55:56.447Z,21.20
2019-05-11T06:58:25.115Z,21.20
2019-05-11T07:00:53.776Z,21.20
2019-05-11T07:03:22.461Z,21.30
2019-05-11T07:05:51.140Z,21.30
2019-05-11T07:08:19.852Z,21.30
2019-05-11T07:10:48.523Z,21.30
2019-05-11T07:13:17.183Z,21.30
2019-05-11T07:15:45.827Z,21.30
2019-05-11T07:18:14.506Z,21.30
2019-05-11T07:20:50.445Z,21.30
2019-05-11T07:23:13.578Z,21.30
2019-05-11T07:25:42.253Z,21.40
2019-05-11T07:28:10.916Z,21.40
2019-05-11T07:30:39.648Z,21.40
2019-05-11T07:33:08.324Z,21.40
2019-05-11T07:35:38.473Z,21.40
2019-05-11T07:38:08.335Z,21.40
2019-05-11T07:40:38.494Z,21.50
2019-05-11T07:43:09.867Z,21.50
2019-05-11T07:45:38.716Z,21.50
2019-05-11T07:48:08.323Z,21.50
2019-05-11T07:50:38.742Z,21.50
2019-05-11T07:53:08.192Z,21.50
2019-05-11T07:55:38.548Z,21.50
2019-05-11T07:58:08.107Z,21.50
2019-05-11T08:00:39.760Z,21.60
2019-05-11T08:03:09.004Z,21.50
2019-05-11T08:05:38.538Z,21.50
2019-05-11T08:08:08.711Z,21.60
2019-05-11T08:10:39.119Z,21.60
2019-05-11T08:13:09.175Z,21.60
2019-05-11T08:15:38.359Z,21.60
2019-05-11T08:18:08.540Z,21.60
2019-05-11T08:20:38.507Z,21.60
2019-05-11T08:23:09.034Z,21.60
2019-05-11T08:25:38.275Z,21.60
2019-05-11T08:28:11.545Z,21.60
2019-05-11T08:30:38.163Z,21.60
2019-05-11T08:33:08.689Z,21.60
2019-05-11T08:35:38.978Z,21.60
2019-05-11T08:38:08.897Z,21.70
2019-05-11T08:40:37.999Z,21.60
2019-05-11T08:43:08.760Z,21.70
2019-05-11T08:45:39.289Z,21.70
2019-05-11T08:48:08.232Z,21.70
2019-05-11T08:50:38.307Z,21.70
2019-05-11T08:53:08.595Z,21.70
2019-05-11T08:55:38.160Z,21.60
2019-05-11T08:58:08.007Z,21.70
2019-05-11T09:00:38.894Z,21.70
2019-05-11T09:03:08.519Z,21.70
2019-05-11T09:05:38.470Z,21.70
2019-05-11T09:08:08.311Z,21.70
2019-05-11T09:10:39.701Z,21.70
2019-05-11T09:13:08.085Z,21.70
2019-05-11T09:15:40.491Z,21.70
2019-05-11T09:18:08.397Z,21.70
2019-05-11T09:20:37.898Z,21.70
2019-05-11T09:23:08.263Z,21.70
2019-05-11T09:25:38.484Z,21.70
2019-05-11T09:28:08.569Z,21.80
2019-05-11T09:30:38.017Z,21.70
2019-05-11T09:33:08.657Z,21.80
2019-05-11T09:35:47.588Z,21.70
2019-05-11T09:38:08.047Z,21.80
2019-05-11T09:40:38.554Z,21.80
2019-05-11T09:43:08.507Z,21.80
2019-05-11T09:45:47.940Z,21.80
2019-05-11T09:48:08.638Z,21.80
2019-05-11T09:50:38.912Z,21.80
2019-05-11T09:53:08.607Z,21.80
2019-05-11T09:55:38.900Z,21.80
2019-05-11T09:58:08.526Z,21.80
2019-05-11T10:00:38.833Z,21.80
2019-05-11T10:03:08.364Z,21.80
2019-05-11T10:05:38.331Z,21.80
2019-05-11T10:08:07.985Z,21.80
2019-05-11T10:10:38.352Z,21.80
2019-05-11T10:13:08.104Z,21.80
2019-05-11T10:15:38.488Z,21.80
2019-05-11T10:18:08.223Z,21.80
2019-05-11T10:20:39.026Z,21.80
2019-05-11T10:23:08.340Z,21.80
2019-05-11T10:25:39.115Z,21.80
2019-05-11T10:28:08.770Z,21.80
2019-05-11T10:30:38.630Z,21.80
2019-05-11T10:33:08.278Z,21.80
2019-05-11T10:35:37.963Z,21.80
2019-05-11T10:38:09.006Z,21.80
2019-05-11T10:40:38.724Z,21.80
2019-05-11T10:43:08.100Z,21.80
2019-05-11T10:45:37.904Z,21.80
2019-05-11T10:48:08.831Z,21.90
2019-05-11T10:50:38.044Z,21.90
2019-05-11T10:53:08.086Z,21.90
2019-05-11T10:55:38.688Z,21.90
2019-05-11T10:58:08.678Z,21.90
2019-05-11T11:00:38.792Z,21.90
2019-05-11T11:03:08.577Z,21.90
2019-05-11T11:05:38.599Z,21.90
2019-05-11T11:08:08.419Z,21.90
2019-05-11T11:10:38.060Z,21.90
2019-05-11T11:13:08.338Z,21.90
2019-05-11T11:15:38.095Z,21.90
2019-05-11T11:18:08.556Z,21.90
2019-05-11T11:20:38.412Z,21.90
2019-05-11T11:23:08.829Z,21.90
2019-05-11T11:25:37.816Z,21.90
2019-05-11T11:28:08.476Z,21.90
2019-05-11T11:30:37.848Z,21.90
2019-05-11T11:33:07.947Z,21.90
2019-05-11T11:35:38.598Z,21.90
2019-05-11T11:38:08.664Z,21.90
2019-05-11T11:40:38.686Z,21.90
2019-05-11T11:43:08.640Z,21.90
2019-05-11T11:45:38.085Z,21.90
2019-05-11T11:48:08.720Z,21.90
2019-05-11T11:50:37.919Z,21.90
2019-05-11T11:53:08.351Z,21.90
2019-05-11T11:55:39.017Z,21.90
2019-05-11T11:58:08.417Z,21.90
2019-05-11T12:00:39.043Z,21.90
2019-05-11T12:03:08.250Z,21.90
2019-05-11T12:05:38.720Z,21.90
2019-05-11T12:08:08.357Z,21.90
2019-05-11T12:10:37.911Z,22.00
2019-05-11T12:13:08.713Z,22.00
2019-05-11T12:15:38.804Z,21.90
2019-05-11T12:18:08.355Z,22.00
2019-05-11T12:20:38.994Z,22.00
2019-05-11T12:23:08.763Z,22.00
2019-05-11T12:25:40.490Z,22.00
2019-05-11T12:28:08.214Z,22.00
2019-05-11T12:30:37.728Z,22.00
2019-05-11T12:33:08.292Z,22.00
2019-05-11T12:35:37.775Z,22.00
2019-05-11T12:38:07.844Z,22.00
2019-05-11T12:40:38.855Z,22.00
2019-05-11T12:43:08.172Z,22.00
2019-05-11T12:45:37.626Z,22.00
2019-05-11T12:48:09.029Z,22.00
2019-05-11T12:50:37.852Z,22.00
2019-05-11T12:53:08.034Z,22.00
2019-05-11T12:55:37.921Z,22.00
2019-05-11T12:58:08.639Z,22.00
2019-05-11T13:00:39.096Z,22.00
2019-05-11T13:03:08.207Z,22.00
2019-05-11T13:05:37.785Z,22.00
2019-05-11T13:08:08.047Z,22.00
2019-05-11T13:10:37.635Z,22.00
2019-05-11T13:13:08.988Z,22.00
2019-05-11T13:15:38.685Z,22.00
2019-05-11T13:18:08.356Z,22.00
2019-05-11T13:20:37.859Z,22.00
2019-05-11T13:23:08.036Z,22.00
2019-05-11T13:25:38.789Z,22.00
2019-05-11T13:28:08.517Z,22.00
2019-05-11T13:30:38.333Z,22.00
2019-05-11T13:33:08.557Z,21.90
2019-05-11T13:35:37.811Z,22.00
2019-05-11T13:38:08.767Z,22.00
2019-05-11T13:40:38.233Z,21.90
2019-05-11T13:43:08.312Z,21.90
2019-05-11T13:45:38.783Z,21.90
2019-05-11T13:48:08.431Z,21.90
2019-05-11T13:50:38.629Z,22.00
2019-05-11T13:53:07.962Z,22.00
2019-05-11T13:55:38.594Z,22.00
2019-05-11T13:58:08.262Z,21.90
2019-05-11T14:00:38.088Z,21.90
2019-05-11T14:03:09.019Z,21.90
2019-05-11T14:05:37.991Z,21.90
2019-05-11T14:08:08.099Z,22.00
2019-05-11T14:10:38.375Z,22.00
2019-05-11T14:13:08.778Z,22.00
2019-05-11T14:15:37.956Z,22.00
2019-05-11T14:18:09.474Z,22.00
2019-05-11T14:20:37.827Z,22.00
2019-05-11T14:23:07.760Z,22.00
2019-05-11T14:25:38.137Z,21.90
2019-05-11T14:28:08.796Z,22.00
2019-05-11T14:30:38.549Z,21.90
2019-05-11T14:33:08.697Z,22.00
2019-05-11T14:35:38.566Z,21.90
2019-05-11T14:38:08.234Z,22.00
2019-05-11T14:40:38.773Z,22.00
2019-05-11T14:43:08.440Z,22.00
2019-05-11T14:45:38.098Z,21.90
2019-05-11T14:48:22.532Z,21.90
2019-05-11T14:50:38.666Z,22.00
2019-05-11T14:53:08.652Z,22.00
2019-05-11T14:55:38.234Z,21.90
2019-05-11T14:58:08.274Z,21.90
2019-05-11T15:00:39.162Z,22.00
2019-05-11T15:03:07.996Z,21.90
2019-05-11T15:05:37.911Z,21.90
2019-05-11T15:08:08.747Z,21.90
2019-05-11T15:10:38.286Z,21.90
2019-05-11T15:13:08.148Z,21.90
2019-05-11T15:15:39.488Z,21.90
2019-05-11T15:18:08.484Z,21.90
2019-05-11T15:20:38.787Z,21.90
2019-05-11T15:23:08.895Z,21.90
2019-05-11T15:25:38.373Z,21.90
2019-05-11T15:28:08.933Z,22.00
2019-05-11T15:30:38.090Z,22.00
2019-05-11T15:33:07.736Z,21.90
2019-05-11T15:35:37.749Z,21.90
2019-05-11T15:38:08.718Z,22.00
2019-05-11T15:40:38.299Z,22.00
2019-05-11T15:43:08.741Z,22.00
2019-05-11T15:45:38.138Z,22.00
2019-05-11T15:48:08.490Z,22.00
2019-05-11T15:50:39.917Z,22.00
2019-05-11T15:53:08.757Z,21.90
2019-05-11T15:55:39.359Z,21.90
2019-05-11T15:58:08.198Z,22.00
2019-05-11T16:00:39.689Z,22.00
2019-05-11T16:03:08.169Z,22.00
2019-05-11T16:05:37.448Z,21.90
2019-05-11T16:08:08.294Z,22.00
2019-05-11T16:10:38.450Z,21.90
2019-05-11T16:13:09.108Z,22.00
2019-05-11T16:15:38.402Z,22.00
2019-05-11T16:18:08.368Z,21.90
2019-05-11T16:20:37.742Z,21.90
2019-05-11T16:23:06.396Z,21.90
2019-05-11T16:25:35.046Z,22.00
2019-05-11T16:28:03.702Z,22.00
2019-05-11T16:30:32.355Z,22.00
2019-05-11T16:33:01.092Z,22.00
2019-05-11T16:35:29.819Z,22.00
2019-05-11T16:37:59.111Z,22.00
2019-05-11T16:40:29.581Z,22.00
2019-05-11T16:42:58.937Z,22.00
2019-05-11T16:45:28.281Z,22.00
2019-05-11T16:47:58.867Z,22.00
2019-05-11T16:50:28.304Z,22.00
2019-05-11T16:52:58.533Z,22.00
2019-05-11T16:55:27.571Z,22.00
2019-05-11T16:57:58.613Z,22.00
2019-05-11T17:00:26.607Z,22.00
2019-05-11T17:02:57.541Z,22.00
2019-05-11T17:05:27.358Z,22.00
2019-05-11T17:07:55.998Z,22.00
2019-05-11T17:10:24.651Z,22.00
2019-05-11T17:12:53.312Z,22.00
2019-05-11T17:15:21.994Z,22.00
2019-05-11T17:17:50.666Z,22.00
2019-05-11T17:20:19.443Z,22.00
2019-05-11T17:22:48.653Z,22.00
2019-05-11T17:25:19.393Z,22.00
2019-05-11T17:27:48.810Z,22.10
2019-05-11T17:30:19.195Z,22.10
2019-05-11T17:32:49.486Z,22.10
2019-05-11T17:35:18.775Z,22.10
2019-05-11T17:37:48.503Z,22.10
2019-05-11T17:40:20.540Z,22.10
2019-05-11T17:42:48.390Z,22.10
2019-05-11T17:45:18.953Z,22.10
2019-05-11T17:47:47.954Z,22.10
2019-05-11T17:50:18.901Z,22.20
2019-05-11T17:52:47.924Z,22.10
2019-05-11T17:55:18.551Z,22.20
2019-05-11T17:57:49.692Z,22.40
2019-05-11T18:00:20.078Z,23.20
2019-05-11T18:02:49.184Z,23.60
2019-05-11T18:05:18.154Z,23.90
2019-05-11T18:07:47.652Z,24.00
2019-05-11T18:10:18.193Z,23.90
2019-05-11T18:12:48.604Z,23.70
2019-05-11T18:15:18.597Z,23.60
2019-05-11T18:17:48.400Z,23.50
2019-05-11T18:20:21.413Z,23.50
2019-05-11T18:22:49.080Z,23.30
2019-05-11T18:25:18.796Z,23.10
2019-05-11T18:27:48.204Z,22.90
2019-05-11T18:30:17.201Z,22.80
2019-05-11T18:32:48.584Z,22.70
2019-05-11T18:35:19.095Z,22.70
2019-05-11T18:37:47.818Z,22.60
2019-05-11T18:40:18.704Z,22.50
2019-05-11T18:42:48.742Z,22.50
2019-05-11T18:45:18.870Z,22.40
2019-05-11T18:47:49.027Z,22.40
2019-05-11T18:50:29.742Z,22.30
2019-05-11T18:52:49.386Z,22.30
2019-05-11T18:55:19.048Z,22.30
2019-05-11T18:57:49.186Z,22.20
2019-05-11T19:00:18.903Z,22.20
2019-05-11T19:02:49.511Z,22.20
2019-05-11T19:05:18.302Z,22.20
2019-05-11T19:07:48.202Z,22.10
2019-05-11T19:10:17.076Z,22.10
2019-05-11T19:12:48.488Z,22.10
2019-05-11T19:15:18.413Z,22.10
2019-05-11T19:17:48.785Z,22.00
2019-05-11T19:20:17.881Z,22.00
2019-05-11T19:22:47.320Z,22.00
2019-05-11T19:25:18.184Z,22.00
2019-05-11T19:27:50.247Z,22.00
2019-05-11T19:30:18.451Z,22.00
2019-05-11T19:32:48.667Z,21.90
2019-05-11T19:35:20.908Z,21.90
2019-05-11T19:37:48.703Z,21.90
2019-05-11T19:40:17.804Z,21.90
2019-05-11T19:42:58.699Z,21.90
2019-05-11T19:45:29.077Z,21.90
2019-05-11T19:47:57.803Z,21.90
2019-05-11T19:50:27.264Z,21.90
2019-05-11T19:52:57.883Z,21.80
2019-05-11T19:55:28.362Z,21.80
2019-05-11T19:57:56.703Z,21.80
2019-05-11T20:00:25.672Z,21.80
2019-05-11T20:02:54.332Z,21.80
2019-05-11T20:05:23.436Z,21.80
2019-05-11T20:07:52.095Z,21.70
2019-05-11T20:10:20.748Z,21.70
2019-05-11T20:12:49.411Z,21.70
2019-05-11T20:15:18.996Z,21.70
2019-05-11T20:17:48.837Z,21.70
2019-05-11T20:20:18.626Z,21.60
2019-05-11T20:22:48.516Z,21.70
2019-05-11T20:25:18.835Z,21.60
2019-05-11T20:27:48.586Z,21.60
2019-05-11T20:30:18.371Z,21.60
2019-05-11T20:32:48.437Z,21.60
2019-05-11T20:35:18.051Z,21.60
2019-05-11T20:37:46.735Z,21.60
2019-05-11T20:40:15.397Z,21.60
2019-05-11T20:42:44.061Z,21.60
2019-05-11T20:45:12.729Z,21.60
2019-05-11T20:47:41.409Z,21.60
2019-05-11T20:50:10.045Z,21.50
2019-05-11T20:52:41.717Z,21.50
2019-05-11T20:55:10.395Z,21.50
2019-05-11T20:57:39.683Z,21.50
2019-05-11T21:00:09.267Z,21.50
2019-05-11T21:02:38.294Z,21.50
2019-05-11T21:05:09.204Z,21.50
2019-05-11T21:07:38.828Z,21.40
2019-05-11T21:10:08.769Z,21.40
2019-05-11T21:12:38.913Z,21.40
2019-05-11T21:15:07.918Z,21.40
2019-05-11T21:17:36.570Z,21.40
2019-05-11T21:20:06.120Z,21.40
2019-05-11T21:22:34.779Z,21.40
2019-05-11T21:25:03.724Z,21.40
2019-05-11T21:27:32.376Z,21.40
2019-05-11T21:30:01.065Z,21.40
2019-05-11T21:32:29.760Z,21.40
2019-05-11T21:35:00.984Z,21.40
2019-05-11T21:37:28.755Z,21.30
2019-05-11T21:39:57.883Z,21.30
2019-05-11T21:42:27.954Z,21.30
2019-05-11T21:44:58.095Z,21.30
2019-05-11T21:47:28.989Z,21.30
2019-05-11T21:49:57.767Z,21.30
2019-05-11T21:52:28.713Z,21.30
2019-05-11T21:54:58.347Z,21.30
2019-05-11T21:57:27.844Z,21.30
2019-05-11T22:00:00.463Z,21.30
2019-05-11T22:02:28.675Z,21.30
2019-05-11T22:04:58.657Z,21.30
2019-05-11T22:07:27.411Z,21.30
2019-05-11T22:09:59.836Z,21.30
2019-05-11T22:12:27.995Z,21.30
2019-05-11T22:14:57.988Z,21.30
2019-05-11T22:17:27.914Z,21.20
2019-05-11T22:19:58.517Z,21.20
2019-05-11T22:22:28.711Z,21.20
2019-05-11T22:24:58.410Z,21.20
2019-05-11T22:27:27.979Z,21.20
2019-05-11T22:29:58.816Z,21.20
2019-05-11T22:32:28.502Z,21.20
2019-05-11T22:34:58.251Z,21.20
2019-05-11T22:37:27.811Z,21.20
2019-05-11T22:39:57.805Z,21.20
2019-05-11T22:42:28.033Z,21.20
2019-05-11T22:44:57.061Z,21.20
2019-05-11T22:47:28.195Z,21.20
2019-05-11T22:49:57.912Z,21.10
2019-05-11T22:52:36.080Z,21.10
2019-05-11T22:54:58.903Z,21.10
2019-05-11T22:57:27.258Z,21.10
2019-05-11T22:59:55.922Z,21.10
2019-05-11T23:02:24.599Z,21.10
2019-05-11T23:04:53.231Z,21.10
2019-05-11T23:07:21.880Z,21.10
2019-05-11T23:09:50.529Z,21.10
2019-05-11T23:12:19.162Z,21.10
2019-05-11T23:14:50.799Z,21.10
2019-05-11T23:17:19.487Z,21.10
2019-05-11T23:19:48.685Z,21.10
2019-05-11T23:22:18.325Z,21.10
2019-05-11T23:24:48.112Z,21.10
2019-05-11T23:27:18.100Z,21.10
2019-05-11T23:29:47.728Z,21.10
2019-05-11T23:32:17.992Z,21.00
2019-05-11T23:34:48.177Z,21.10
2019-05-11T23:37:18.428Z,21.00
2019-05-11T23:39:48.005Z,21.00
2019-05-11T23:42:17.212Z,21.00
2019-05-11T23:44:47.938Z,21.00
2019-05-11T23:47:19.992Z,21.00
2019-05-11T23:49:47.961Z,21.00
2019-05-11T23:52:18.061Z,21.00
2019-05-11T23:54:48.472Z,21.00
2019-05-11T23:57:18.638Z,21.00
2019-05-11T23:59:47.801Z,21.00
